sensor_id;sensor_type;location;lat;lon;timestamp;P1;durP1;ratioP1;P2;durP2;ratioP2
12840;SDS011;6487;48.626;12.486;2023-09-19T00:00:47;3.13;;;1.20;;
12840;SDS011;6487;48.626;12.486;2023-09-19T00:03:16;5.57;;;1.63;;
12840;SDS011;6487;48.626;12.486;2023-09-19T00:05:49;2.03;;;1.27;;
12840;SDS011;6487;48.626;12.486;2023-09-19T00:08:17;6.50;;;1.50;;
12840;SDS011;6487;48.626;12.486;2023-09-19T00:10:51;5.97;;;1.40;;
12840;SDS011;6487;48.626;12.486;2023-09-19T00:13:20;3.63;;;1.13;;
12840;SDS011;6487;48.626;12.486;2023-09-19T00:15:55;1.73;;;1.30;;
12840;SDS011;6487;48.626;12.486;2023-09-19T00:18:25;3.03;;;1.13;;
12840;SDS011;6487;48.626;12.486;2023-09-19T00:20:58;1.53;;;1.00;;
12840;SDS011;6487;48.626;12.486;2023-09-19T00:23:27;1.90;;;1.47;;
12840;SDS011;6487;48.626;12.486;2023-09-19T00:25:59;1.50;;;1.27;;
12840;SDS011;6487;48.626;12.486;2023-09-19T00:28:28;1.60;;;1.30;;
12840;SDS011;6487;48.626;12.486;2023-09-19T00:30:58;2.80;;;1.47;;
12840;SDS011;6487;48.626;12.486;2023-09-19T00:33:28;3.07;;;1.30;;
12840;SDS011;6487;48.626;12.486;2023-09-19T00:36:00;3.07;;;1.53;;
12840;SDS011;6487;48.626;12.486;2023-09-19T00:38:31;4.03;;;1.67;;
12840;SDS011;6487;48.626;12.486;2023-09-19T00:41:01;4.07;;;1.40;;
12840;SDS011;6487;48.626;12.486;2023-09-19T00:43:30;6.27;;;1.67;;
12840;SDS011;6487;48.626;12.486;2023-09-19T00:46:02;2.23;;;1.27;;
12840;SDS011;6487;48.626;12.486;2023-09-19T00:48:32;3.03;;;1.40;;
12840;SDS011;6487;48.626;12.486;2023-09-19T00:51:10;3.63;;;1.43;;
12840;SDS011;6487;48.626;12.486;2023-09-19T00:53:40;4.03;;;1.67;;
12840;SDS011;6487;48.626;12.486;2023-09-19T00:56:14;1.40;;;1.17;;
12840;SDS011;6487;48.626;12.486;2023-09-19T00:58:45;1.80;;;1.30;;
12840;SDS011;6487;48.626;12.486;2023-09-19T01:01:16;3.20;;;1.30;;
12840;SDS011;6487;48.626;12.486;2023-09-19T01:03:46;3.60;;;1.10;;
12840;SDS011;6487;48.626;12.486;2023-09-19T01:06:14;2.47;;;1.27;;
12840;SDS011;6487;48.626;12.486;2023-09-19T01:08:44;2.03;;;1.30;;
12840;SDS011;6487;48.626;12.486;2023-09-19T01:11:14;3.13;;;1.40;;
12840;SDS011;6487;48.626;12.486;2023-09-19T01:14:01;2.93;;;1.30;;
12840;SDS011;6487;48.626;12.486;2023-09-19T01:16:47;1.87;;;1.37;;
12840;SDS011;6487;48.626;12.486;2023-09-19T01:19:31;2.00;;;1.50;;
12840;SDS011;6487;48.626;12.486;2023-09-19T01:22:42;1.47;;;1.23;;
12840;SDS011;6487;48.626;12.486;2023-09-19T01:25:42;2.20;;;1.40;;
12840;SDS011;6487;48.626;12.486;2023-09-19T01:28:43;2.50;;;1.23;;
12840;SDS011;6487;48.626;12.486;2023-09-19T01:31:31;4.30;;;1.30;;
12840;SDS011;6487;48.626;12.486;2023-09-19T01:34:02;3.23;;;1.60;;
12840;SDS011;6487;48.626;12.486;2023-09-19T01:36:32;5.73;;;1.50;;
12840;SDS011;6487;48.626;12.486;2023-09-19T01:39:02;4.10;;;1.33;;
12840;SDS011;6487;48.626;12.486;2023-09-19T01:41:44;2.27;;;1.50;;
12840;SDS011;6487;48.626;12.486;2023-09-19T01:44:21;2.30;;;1.37;;
12840;SDS011;6487;48.626;12.486;2023-09-19T01:47:00;3.00;;;1.23;;
12840;SDS011;6487;48.626;12.486;2023-09-19T01:49:42;2.07;;;1.30;;
12840;SDS011;6487;48.626;12.486;2023-09-19T01:52:20;2.93;;;1.53;;
12840;SDS011;6487;48.626;12.486;2023-09-19T01:54:53;1.37;;;1.20;;
12840;SDS011;6487;48.626;12.486;2023-09-19T01:57:32;3.50;;;1.60;;
12840;SDS011;6487;48.626;12.486;2023-09-19T02:00:11;4.40;;;1.50;;
12840;SDS011;6487;48.626;12.486;2023-09-19T02:02:43;1.50;;;1.40;;
12840;SDS011;6487;48.626;12.486;2023-09-19T02:05:21;4.63;;;1.93;;
12840;SDS011;6487;48.626;12.486;2023-09-19T02:07:51;4.50;;;1.97;;
12840;SDS011;6487;48.626;12.486;2023-09-19T02:10:20;2.93;;;1.90;;
12840;SDS011;6487;48.626;12.486;2023-09-19T02:12:51;3.77;;;1.67;;
12840;SDS011;6487;48.626;12.486;2023-09-19T02:15:20;1.73;;;1.50;;
12840;SDS011;6487;48.626;12.486;2023-09-19T02:17:50;4.07;;;1.53;;
12840;SDS011;6487;48.626;12.486;2023-09-19T02:20:19;5.90;;;1.47;;
12840;SDS011;6487;48.626;12.486;2023-09-19T02:22:48;1.30;;;1.10;;
12840;SDS011;6487;48.626;12.486;2023-09-19T02:25:16;2.63;;;1.33;;
12840;SDS011;6487;48.626;12.486;2023-09-19T02:27:46;3.40;;;1.30;;
12840;SDS011;6487;48.626;12.486;2023-09-19T02:30:14;2.93;;;1.77;;
12840;SDS011;6487;48.626;12.486;2023-09-19T02:32:46;5.97;;;1.50;;
12840;SDS011;6487;48.626;12.486;2023-09-19T02:35:17;5.10;;;1.60;;
12840;SDS011;6487;48.626;12.486;2023-09-19T02:37:47;2.67;;;1.40;;
12840;SDS011;6487;48.626;12.486;2023-09-19T02:40:15;3.17;;;1.67;;
12840;SDS011;6487;48.626;12.486;2023-09-19T02:42:48;1.77;;;1.40;;
12840;SDS011;6487;48.626;12.486;2023-09-19T02:45:20;1.97;;;1.40;;
12840;SDS011;6487;48.626;12.486;2023-09-19T02:47:49;2.10;;;1.43;;
12840;SDS011;6487;48.626;12.486;2023-09-19T02:50:22;5.97;;;1.83;;
12840;SDS011;6487;48.626;12.486;2023-09-19T02:52:51;3.77;;;1.43;;
12840;SDS011;6487;48.626;12.486;2023-09-19T02:55:23;3.63;;;1.43;;
12840;SDS011;6487;48.626;12.486;2023-09-19T02:57:52;1.93;;;1.60;;
12840;SDS011;6487;48.626;12.486;2023-09-19T03:00:22;2.00;;;1.23;;
12840;SDS011;6487;48.626;12.486;2023-09-19T03:02:52;5.00;;;1.73;;
12840;SDS011;6487;48.626;12.486;2023-09-19T03:05:24;3.50;;;1.50;;
12840;SDS011;6487;48.626;12.486;2023-09-19T03:07:53;6.77;;;1.70;;
12840;SDS011;6487;48.626;12.486;2023-09-19T03:10:22;3.20;;;1.40;;
12840;SDS011;6487;48.626;12.486;2023-09-19T03:12:51;1.60;;;1.50;;
12840;SDS011;6487;48.626;12.486;2023-09-19T03:15:20;4.27;;;1.60;;
12840;SDS011;6487;48.626;12.486;2023-09-19T03:17:49;3.00;;;1.60;;
12840;SDS011;6487;48.626;12.486;2023-09-19T03:20:18;4.03;;;1.60;;
12840;SDS011;6487;48.626;12.486;2023-09-19T03:22:48;1.57;;;1.47;;
12840;SDS011;6487;48.626;12.486;2023-09-19T03:25:18;1.93;;;1.40;;
12840;SDS011;6487;48.626;12.486;2023-09-19T03:27:49;3.00;;;1.43;;
12840;SDS011;6487;48.626;12.486;2023-09-19T03:30:24;2.93;;;2.00;;
12840;SDS011;6487;48.626;12.486;2023-09-19T03:32:53;4.10;;;1.53;;
12840;SDS011;6487;48.626;12.486;2023-09-19T03:35:21;1.60;;;1.30;;
12840;SDS011;6487;48.626;12.486;2023-09-19T03:37:51;1.83;;;1.30;;
12840;SDS011;6487;48.626;12.486;2023-09-19T03:40:20;3.23;;;1.33;;
12840;SDS011;6487;48.626;12.486;2023-09-19T03:42:49;2.93;;;1.47;;
12840;SDS011;6487;48.626;12.486;2023-09-19T03:45:18;2.07;;;1.53;;
12840;SDS011;6487;48.626;12.486;2023-09-19T03:47:46;1.50;;;1.40;;
12840;SDS011;6487;48.626;12.486;2023-09-19T03:50:15;2.87;;;1.33;;
12840;SDS011;6487;48.626;12.486;2023-09-19T03:52:44;1.50;;;1.20;;
12840;SDS011;6487;48.626;12.486;2023-09-19T03:55:14;3.00;;;1.40;;
12840;SDS011;6487;48.626;12.486;2023-09-19T03:57:47;3.47;;;1.30;;
12840;SDS011;6487;48.626;12.486;2023-09-19T04:00:16;1.70;;;1.23;;
12840;SDS011;6487;48.626;12.486;2023-09-19T04:02:47;2.43;;;1.13;;
12840;SDS011;6487;48.626;12.486;2023-09-19T04:05:16;3.17;;;1.40;;
12840;SDS011;6487;48.626;12.486;2023-09-19T04:07:47;2.67;;;1.40;;
12840;SDS011;6487;48.626;12.486;2023-09-19T04:10:18;3.33;;;1.40;;
12840;SDS011;6487;48.626;12.486;2023-09-19T04:12:52;1.63;;;1.33;;
12840;SDS011;6487;48.626;12.486;2023-09-19T04:15:22;2.63;;;1.27;;
12840;SDS011;6487;48.626;12.486;2023-09-19T04:17:54;2.43;;;1.37;;
12840;SDS011;6487;48.626;12.486;2023-09-19T04:20:22;1.23;;;1.13;;
12840;SDS011;6487;48.626;12.486;2023-09-19T04:22:51;2.33;;;1.40;;
12840;SDS011;6487;48.626;12.486;2023-09-19T04:25:22;3.40;;;1.30;;
12840;SDS011;6487;48.626;12.486;2023-09-19T04:27:51;2.87;;;1.70;;
12840;SDS011;6487;48.626;12.486;2023-09-19T04:30:20;4.47;;;1.50;;
12840;SDS011;6487;48.626;12.486;2023-09-19T04:32:49;3.03;;;1.30;;
12840;SDS011;6487;48.626;12.486;2023-09-19T04:35:18;2.57;;;1.43;;
12840;SDS011;6487;48.626;12.486;2023-09-19T04:37:47;3.90;;;1.70;;
12840;SDS011;6487;48.626;12.486;2023-09-19T04:40:15;1.93;;;1.43;;
12840;SDS011;6487;48.626;12.486;2023-09-19T04:42:47;1.87;;;1.37;;
12840;SDS011;6487;48.626;12.486;2023-09-19T04:45:23;1.73;;;1.33;;
12840;SDS011;6487;48.626;12.486;2023-09-19T04:47:51;2.40;;;1.17;;
12840;SDS011;6487;48.626;12.486;2023-09-19T04:50:20;1.73;;;1.43;;
12840;SDS011;6487;48.626;12.486;2023-09-19T04:52:50;1.37;;;1.27;;
12840;SDS011;6487;48.626;12.486;2023-09-19T04:55:20;2.07;;;1.53;;
12840;SDS011;6487;48.626;12.486;2023-09-19T04:57:50;4.60;;;1.70;;
12840;SDS011;6487;48.626;12.486;2023-09-19T05:00:20;1.80;;;1.37;;
12840;SDS011;6487;48.626;12.486;2023-09-19T05:02:50;6.17;;;1.20;;
12840;SDS011;6487;48.626;12.486;2023-09-19T05:05:20;2.90;;;1.30;;
12840;SDS011;6487;48.626;12.486;2023-09-19T05:07:49;2.27;;;1.40;;
12840;SDS011;6487;48.626;12.486;2023-09-19T05:10:20;2.17;;;1.33;;
12840;SDS011;6487;48.626;12.486;2023-09-19T05:12:50;6.00;;;1.73;;
12840;SDS011;6487;48.626;12.486;2023-09-19T05:15:21;1.70;;;1.43;;
12840;SDS011;6487;48.626;12.486;2023-09-19T05:17:50;3.50;;;1.50;;
12840;SDS011;6487;48.626;12.486;2023-09-19T05:20:24;4.73;;;1.53;;
12840;SDS011;6487;48.626;12.486;2023-09-19T05:22:59;2.07;;;1.10;;
12840;SDS011;6487;48.626;12.486;2023-09-19T05:25:29;4.33;;;1.57;;
12840;SDS011;6487;48.626;12.486;2023-09-19T05:28:05;1.97;;;1.77;;
12840;SDS011;6487;48.626;12.486;2023-09-19T05:30:38;2.57;;;1.70;;
12840;SDS011;6487;48.626;12.486;2023-09-19T05:33:07;2.03;;;1.63;;
12840;SDS011;6487;48.626;12.486;2023-09-19T05:35:38;2.47;;;1.20;;
12840;SDS011;6487;48.626;12.486;2023-09-19T05:38:08;2.47;;;1.23;;
12840;SDS011;6487;48.626;12.486;2023-09-19T05:40:39;3.30;;;2.10;;
12840;SDS011;6487;48.626;12.486;2023-09-19T05:43:10;2.20;;;1.67;;
12840;SDS011;6487;48.626;12.486;2023-09-19T05:45:40;3.87;;;1.70;;
12840;SDS011;6487;48.626;12.486;2023-09-19T05:48:09;2.37;;;1.60;;
12840;SDS011;6487;48.626;12.486;2023-09-19T05:50:39;2.03;;;1.83;;
12840;SDS011;6487;48.626;12.486;2023-09-19T05:53:08;4.03;;;1.57;;
12840;SDS011;6487;48.626;12.486;2023-09-19T05:55:38;2.53;;;1.33;;
12840;SDS011;6487;48.626;12.486;2023-09-19T05:58:06;2.13;;;1.60;;
12840;SDS011;6487;48.626;12.486;2023-09-19T06:00:37;3.67;;;2.10;;
12840;SDS011;6487;48.626;12.486;2023-09-19T06:03:08;3.23;;;1.80;;
12840;SDS011;6487;48.626;12.486;2023-09-19T06:05:38;2.23;;;1.70;;
12840;SDS011;6487;48.626;12.486;2023-09-19T06:08:07;2.97;;;1.60;;
12840;SDS011;6487;48.626;12.486;2023-09-19T06:10:36;3.50;;;2.23;;
12840;SDS011;6487;48.626;12.486;2023-09-19T06:13:04;2.97;;;2.07;;
12840;SDS011;6487;48.626;12.486;2023-09-19T06:15:37;3.20;;;1.83;;
12840;SDS011;6487;48.626;12.486;2023-09-19T06:18:10;4.47;;;1.93;;
12840;SDS011;6487;48.626;12.486;2023-09-19T06:20:46;2.77;;;1.70;;
12840;SDS011;6487;48.626;12.486;2023-09-19T06:23:15;2.70;;;1.60;;
12840;SDS011;6487;48.626;12.486;2023-09-19T06:25:45;4.03;;;2.20;;
12840;SDS011;6487;48.626;12.486;2023-09-19T06:28:15;5.33;;;2.00;;
12840;SDS011;6487;48.626;12.486;2023-09-19T06:30:48;4.40;;;2.20;;
12840;SDS011;6487;48.626;12.486;2023-09-19T06:33:16;4.17;;;1.97;;
12840;SDS011;6487;48.626;12.486;2023-09-19T06:35:47;2.60;;;2.17;;
12840;SDS011;6487;48.626;12.486;2023-09-19T06:38:15;1.70;;;1.60;;
12840;SDS011;6487;48.626;12.486;2023-09-19T06:40:44;2.13;;;1.53;;
12840;SDS011;6487;48.626;12.486;2023-09-19T06:43:12;3.60;;;1.90;;
12840;SDS011;6487;48.626;12.486;2023-09-19T06:45:45;3.20;;;2.73;;
12840;SDS011;6487;48.626;12.486;2023-09-19T06:48:14;2.50;;;1.90;;
12840;SDS011;6487;48.626;12.486;2023-09-19T06:50:43;2.30;;;1.93;;
12840;SDS011;6487;48.626;12.486;2023-09-19T06:53:12;2.50;;;1.70;;
12840;SDS011;6487;48.626;12.486;2023-09-19T06:55:41;1.83;;;1.60;;
12840;SDS011;6487;48.626;12.486;2023-09-19T06:58:10;2.43;;;1.60;;
12840;SDS011;6487;48.626;12.486;2023-09-19T07:00:38;1.97;;;1.73;;
12840;SDS011;6487;48.626;12.486;2023-09-19T07:03:10;3.57;;;2.30;;
12840;SDS011;6487;48.626;12.486;2023-09-19T07:05:44;4.03;;;2.30;;
12840;SDS011;6487;48.626;12.486;2023-09-19T07:08:15;1.97;;;1.37;;
12840;SDS011;6487;48.626;12.486;2023-09-19T07:10:45;2.50;;;1.80;;
12840;SDS011;6487;48.626;12.486;2023-09-19T07:13:16;2.60;;;1.60;;
12840;SDS011;6487;48.626;12.486;2023-09-19T07:15:45;2.27;;;1.47;;
12840;SDS011;6487;48.626;12.486;2023-09-19T07:18:14;3.33;;;1.63;;
12840;SDS011;6487;48.626;12.486;2023-09-19T07:20:45;2.93;;;1.40;;
12840;SDS011;6487;48.626;12.486;2023-09-19T07:23:16;4.93;;;1.63;;
12840;SDS011;6487;48.626;12.486;2023-09-19T07:25:45;2.30;;;1.40;;
12840;SDS011;6487;48.626;12.486;2023-09-19T07:28:15;2.20;;;1.33;;
12840;SDS011;6487;48.626;12.486;2023-09-19T07:30:44;1.87;;;1.60;;
12840;SDS011;6487;48.626;12.486;2023-09-19T07:33:12;4.13;;;1.43;;
12840;SDS011;6487;48.626;12.486;2023-09-19T07:35:44;6.10;;;1.40;;
12840;SDS011;6487;48.626;12.486;2023-09-19T07:38:14;2.23;;;1.50;;
12840;SDS011;6487;48.626;12.486;2023-09-19T07:40:44;4.27;;;1.70;;
12840;SDS011;6487;48.626;12.486;2023-09-19T07:43:12;2.10;;;1.20;;
12840;SDS011;6487;48.626;12.486;2023-09-19T07:45:41;1.90;;;1.27;;
12840;SDS011;6487;48.626;12.486;2023-09-19T07:48:10;1.87;;;1.40;;
12840;SDS011;6487;48.626;12.486;2023-09-19T07:50:41;2.80;;;2.00;;
12840;SDS011;6487;48.626;12.486;2023-09-19T07:53:12;2.70;;;1.60;;
12840;SDS011;6487;48.626;12.486;2023-09-19T07:55:41;1.43;;;1.30;;
12840;SDS011;6487;48.626;12.486;2023-09-19T07:58:14;2.40;;;1.50;;
12840;SDS011;6487;48.626;12.486;2023-09-19T08:00:43;1.80;;;1.43;;
12840;SDS011;6487;48.626;12.486;2023-09-19T08:03:12;2.97;;;1.20;;
12840;SDS011;6487;48.626;12.486;2023-09-19T08:05:43;3.20;;;1.50;;
12840;SDS011;6487;48.626;12.486;2023-09-19T08:08:14;2.23;;;1.13;;
12840;SDS011;6487;48.626;12.486;2023-09-19T08:10:45;1.73;;;1.43;;
12840;SDS011;6487;48.626;12.486;2023-09-19T08:13:15;1.40;;;1.10;;
12840;SDS011;6487;48.626;12.486;2023-09-19T08:15:44;1.70;;;1.30;;
12840;SDS011;6487;48.626;12.486;2023-09-19T08:18:14;2.30;;;1.50;;
12840;SDS011;6487;48.626;12.486;2023-09-19T08:20:43;1.67;;;1.30;;
12840;SDS011;6487;48.626;12.486;2023-09-19T08:23:18;1.57;;;1.47;;
12840;SDS011;6487;48.626;12.486;2023-09-19T08:25:47;2.90;;;1.20;;
12840;SDS011;6487;48.626;12.486;2023-09-19T08:28:16;4.67;;;1.60;;
12840;SDS011;6487;48.626;12.486;2023-09-19T08:30:50;2.17;;;1.20;;
12840;SDS011;6487;48.626;12.486;2023-09-19T08:33:21;2.40;;;1.20;;
12840;SDS011;6487;48.626;12.486;2023-09-19T08:35:49;1.63;;;1.17;;
12840;SDS011;6487;48.626;12.486;2023-09-19T08:38:19;3.33;;;1.40;;
12840;SDS011;6487;48.626;12.486;2023-09-19T08:40:48;1.50;;;1.27;;
12840;SDS011;6487;48.626;12.486;2023-09-19T08:43:16;1.53;;;1.10;;
12840;SDS011;6487;48.626;12.486;2023-09-19T08:45:44;2.90;;;1.20;;
12840;SDS011;6487;48.626;12.486;2023-09-19T08:48:16;2.00;;;1.30;;
12840;SDS011;6487;48.626;12.486;2023-09-19T08:50:52;1.43;;;1.30;;
12840;SDS011;6487;48.626;12.486;2023-09-19T08:53:33;1.80;;;1.50;;
12840;SDS011;6487;48.626;12.486;2023-09-19T08:56:12;1.93;;;1.43;;
12840;SDS011;6487;48.626;12.486;2023-09-19T08:58:46;2.97;;;1.10;;
12840;SDS011;6487;48.626;12.486;2023-09-19T09:01:19;1.67;;;1.20;;
12840;SDS011;6487;48.626;12.486;2023-09-19T09:03:52;2.27;;;1.30;;
12840;SDS011;6487;48.626;12.486;2023-09-19T09:06:22;1.93;;;1.10;;
12840;SDS011;6487;48.626;12.486;2023-09-19T09:08:55;1.90;;;1.20;;
12840;SDS011;6487;48.626;12.486;2023-09-19T09:11:24;1.40;;;1.00;;
12840;SDS011;6487;48.626;12.486;2023-09-19T09:13:54;2.33;;;1.60;;
12840;SDS011;6487;48.626;12.486;2023-09-19T09:16:24;2.40;;;1.20;;
12840;SDS011;6487;48.626;12.486;2023-09-19T09:18:53;1.43;;;1.20;;
12840;SDS011;6487;48.626;12.486;2023-09-19T09:21:22;1.90;;;0.90;;
12840;SDS011;6487;48.626;12.486;2023-09-19T09:23:53;1.37;;;1.00;;
12840;SDS011;6487;48.626;12.486;2023-09-19T09:29:10;4.30;;;1.17;;
12840;SDS011;6487;48.626;12.486;2023-09-19T09:31:41;2.37;;;1.13;;
12840;SDS011;6487;48.626;12.486;2023-09-19T09:34:10;2.53;;;1.40;;
12840;SDS011;6487;48.626;12.486;2023-09-19T09:36:40;1.40;;;1.27;;
12840;SDS011;6487;48.626;12.486;2023-09-19T09:39:10;2.10;;;1.17;;
12840;SDS011;6487;48.626;12.486;2023-09-19T09:41:51;1.57;;;1.10;;
12840;SDS011;6487;48.626;12.486;2023-09-19T09:44:19;1.50;;;1.10;;
12840;SDS011;6487;48.626;12.486;2023-09-19T09:46:48;1.10;;;0.90;;
12840;SDS011;6487;48.626;12.486;2023-09-19T09:49:47;2.45;;;1.00;;
12840;SDS011;6487;48.626;12.486;2023-09-19T09:52:44;1.65;;;1.05;;
12840;SDS011;6487;48.626;12.486;2023-09-19T09:55:14;1.92;;;1.17;;
12840;SDS011;6487;48.626;12.486;2023-09-19T09:57:45;1.90;;;1.20;;
12840;SDS011;6487;48.626;12.486;2023-09-19T10:00:14;1.40;;;1.30;;
12840;SDS011;6487;48.626;12.486;2023-09-19T10:02:47;1.00;;;0.90;;
12840;SDS011;6487;48.626;12.486;2023-09-19T10:05:16;2.80;;;1.20;;
12840;SDS011;6487;48.626;12.486;2023-09-19T10:07:54;1.02;;;0.93;;
12840;SDS011;6487;48.626;12.486;2023-09-19T10:10:32;1.87;;;1.23;;
12840;SDS011;6487;48.626;12.486;2023-09-19T10:13:20;1.20;;;1.10;;
12840;SDS011;6487;48.626;12.486;2023-09-19T10:15:50;1.43;;;0.97;;
12840;SDS011;6487;48.626;12.486;2023-09-19T10:18:22;1.47;;;0.97;;
12840;SDS011;6487;48.626;12.486;2023-09-19T10:20:51;1.30;;;1.00;;
12840;SDS011;6487;48.626;12.486;2023-09-19T10:23:21;2.27;;;1.30;;
12840;SDS011;6487;48.626;12.486;2023-09-19T10:25:53;2.13;;;1.00;;
12840;SDS011;6487;48.626;12.486;2023-09-19T10:28:22;4.47;;;1.60;;
12840;SDS011;6487;48.626;12.486;2023-09-19T10:30:51;3.10;;;1.20;;
12840;SDS011;6487;48.626;12.486;2023-09-19T10:33:21;1.87;;;1.20;;
12840;SDS011;6487;48.626;12.486;2023-09-19T10:35:52;1.47;;;0.97;;
12840;SDS011;6487;48.626;12.486;2023-09-19T10:38:23;1.00;;;0.80;;
12840;SDS011;6487;48.626;12.486;2023-09-19T10:40:56;2.73;;;0.80;;
12840;SDS011;6487;48.626;12.486;2023-09-19T10:43:29;0.97;;;0.70;;
12840;SDS011;6487;48.626;12.486;2023-09-19T10:46:03;1.63;;;0.70;;
12840;SDS011;6487;48.626;12.486;2023-09-19T10:48:37;2.53;;;0.63;;
12840;SDS011;6487;48.626;12.486;2023-09-19T10:51:08;0.60;;;0.47;;
12840;SDS011;6487;48.626;12.486;2023-09-19T10:53:41;0.60;;;0.50;;
12840;SDS011;6487;48.626;12.486;2023-09-19T10:56:21;0.50;;;0.50;;
12840;SDS011;6487;48.626;12.486;2023-09-19T10:59:05;0.90;;;0.60;;
12840;SDS011;6487;48.626;12.486;2023-09-19T11:01:43;0.83;;;0.60;;
12840;SDS011;6487;48.626;12.486;2023-09-19T11:04:21;0.73;;;0.50;;
12840;SDS011;6487;48.626;12.486;2023-09-19T11:06:59;0.60;;;0.50;;
12840;SDS011;6487;48.626;12.486;2023-09-19T11:09:43;0.50;;;0.50;;
12840;SDS011;6487;48.626;12.486;2023-09-19T11:12:48;0.60;;;0.60;;
12840;SDS011;6487;48.626;12.486;2023-09-19T11:18:52;0.87;;;0.60;;
12840;SDS011;6487;48.626;12.486;2023-09-19T11:24:31;0.93;;;0.80;;
12840;SDS011;6487;48.626;12.486;2023-09-19T11:27:09;0.97;;;0.70;;
12840;SDS011;6487;48.626;12.486;2023-09-19T11:29:41;0.93;;;0.80;;
12840;SDS011;6487;48.626;12.486;2023-09-19T11:32:09;1.73;;;0.70;;
12840;SDS011;6487;48.626;12.486;2023-09-19T11:34:48;2.00;;;0.90;;
12840;SDS011;6487;48.626;12.486;2023-09-19T11:40:45;0.93;;;0.80;;
12840;SDS011;6487;48.626;12.486;2023-09-19T11:43:27;0.93;;;0.60;;
12840;SDS011;6487;48.626;12.486;2023-09-19T11:46:07;1.33;;;0.80;;
12840;SDS011;6487;48.626;12.486;2023-09-19T11:48:37;0.70;;;0.70;;
12840;SDS011;6487;48.626;12.486;2023-09-19T11:51:12;0.60;;;0.60;;
12840;SDS011;6487;48.626;12.486;2023-09-19T11:53:50;1.00;;;0.70;;
12840;SDS011;6487;48.626;12.486;2023-09-19T11:56:20;1.03;;;0.70;;
12840;SDS011;6487;48.626;12.486;2023-09-19T11:58:54;0.90;;;0.90;;
12840;SDS011;6487;48.626;12.486;2023-09-19T12:01:29;0.50;;;0.50;;
12840;SDS011;6487;48.626;12.486;2023-09-19T12:04:03;1.17;;;0.80;;
12840;SDS011;6487;48.626;12.486;2023-09-19T12:06:32;2.10;;;0.80;;
12840;SDS011;6487;48.626;12.486;2023-09-19T12:09:02;1.33;;;0.60;;
12840;SDS011;6487;48.626;12.486;2023-09-19T12:11:40;0.67;;;0.67;;
12840;SDS011;6487;48.626;12.486;2023-09-19T12:14:10;0.60;;;0.60;;
12840;SDS011;6487;48.626;12.486;2023-09-19T12:16:41;2.10;;;0.70;;
12840;SDS011;6487;48.626;12.486;2023-09-19T12:19:22;1.20;;;0.77;;
12840;SDS011;6487;48.626;12.486;2023-09-19T12:21:54;2.47;;;0.63;;
12840;SDS011;6487;48.626;12.486;2023-09-19T12:24:26;1.83;;;1.07;;
12840;SDS011;6487;48.626;12.486;2023-09-19T12:27:00;1.10;;;0.97;;
12840;SDS011;6487;48.626;12.486;2023-09-19T12:29:41;1.43;;;0.70;;
12840;SDS011;6487;48.626;12.486;2023-09-19T12:32:12;1.53;;;0.70;;
12840;SDS011;6487;48.626;12.486;2023-09-19T12:34:49;1.47;;;0.90;;
12840;SDS011;6487;48.626;12.486;2023-09-19T12:37:19;2.57;;;0.90;;
12840;SDS011;6487;48.626;12.486;2023-09-19T12:39:49;1.70;;;0.90;;
12840;SDS011;6487;48.626;12.486;2023-09-19T12:42:21;1.53;;;0.80;;
12840;SDS011;6487;48.626;12.486;2023-09-19T12:44:51;0.60;;;0.60;;
12840;SDS011;6487;48.626;12.486;2023-09-19T12:47:25;1.87;;;0.90;;
12840;SDS011;6487;48.626;12.486;2023-09-19T12:50:06;0.93;;;0.87;;
12840;SDS011;6487;48.626;12.486;2023-09-19T12:52:41;1.07;;;0.97;;
12840;SDS011;6487;48.626;12.486;2023-09-19T12:55:23;0.77;;;0.77;;
12840;SDS011;6487;48.626;12.486;2023-09-19T12:58:00;1.10;;;0.90;;
12840;SDS011;6487;48.626;12.486;2023-09-19T13:00:46;1.40;;;1.07;;
12840;SDS011;6487;48.626;12.486;2023-09-19T13:03:25;1.77;;;1.10;;
12840;SDS011;6487;48.626;12.486;2023-09-19T13:05:58;2.27;;;1.20;;
12840;SDS011;6487;48.626;12.486;2023-09-19T13:08:29;1.63;;;1.00;;
12840;SDS011;6487;48.626;12.486;2023-09-19T13:11:01;3.23;;;1.40;;
12840;SDS011;6487;48.626;12.486;2023-09-19T13:13:44;1.33;;;1.00;;
12840;SDS011;6487;48.626;12.486;2023-09-19T13:16:16;1.53;;;1.20;;
12840;SDS011;6487;48.626;12.486;2023-09-19T13:18:50;2.10;;;1.17;;
12840;SDS011;6487;48.626;12.486;2023-09-19T13:21:30;1.83;;;1.07;;
12840;SDS011;6487;48.626;12.486;2023-09-19T13:24:19;1.07;;;0.97;;
12840;SDS011;6487;48.626;12.486;2023-09-19T13:26:52;1.43;;;1.20;;
12840;SDS011;6487;48.626;12.486;2023-09-19T13:29:20;2.40;;;1.40;;
12840;SDS011;6487;48.626;12.486;2023-09-19T13:31:50;2.07;;;1.03;;
12840;SDS011;6487;48.626;12.486;2023-09-19T13:34:21;1.83;;;1.40;;
12840;SDS011;6487;48.626;12.486;2023-09-19T13:36:51;1.30;;;1.20;;
12840;SDS011;6487;48.626;12.486;2023-09-19T13:39:19;4.20;;;1.10;;
12840;SDS011;6487;48.626;12.486;2023-09-19T13:41:51;3.33;;;1.40;;
12840;SDS011;6487;48.626;12.486;2023-09-19T13:44:19;3.63;;;1.20;;
12840;SDS011;6487;48.626;12.486;2023-09-19T13:46:47;1.30;;;1.17;;
12840;SDS011;6487;48.626;12.486;2023-09-19T13:49:17;1.50;;;1.10;;
12840;SDS011;6487;48.626;12.486;2023-09-19T13:51:49;1.77;;;1.23;;
12840;SDS011;6487;48.626;12.486;2023-09-19T13:54:18;1.67;;;1.30;;
12840;SDS011;6487;48.626;12.486;2023-09-19T13:56:47;1.27;;;1.13;;
12840;SDS011;6487;48.626;12.486;2023-09-19T13:59:15;1.27;;;1.00;;
12840;SDS011;6487;48.626;12.486;2023-09-19T14:01:44;1.90;;;1.40;;
12840;SDS011;6487;48.626;12.486;2023-09-19T14:04:12;1.60;;;1.30;;
12840;SDS011;6487;48.626;12.486;2023-09-19T14:06:41;2.23;;;1.40;;
12840;SDS011;6487;48.626;12.486;2023-09-19T14:09:13;1.63;;;1.03;;
12840;SDS011;6487;48.626;12.486;2023-09-19T14:11:45;2.70;;;1.23;;
12840;SDS011;6487;48.626;12.486;2023-09-19T14:14:14;1.37;;;1.20;;
12840;SDS011;6487;48.626;12.486;2023-09-19T14:16:45;1.10;;;1.00;;
12840;SDS011;6487;48.626;12.486;2023-09-19T14:19:14;1.70;;;1.00;;
12840;SDS011;6487;48.626;12.486;2023-09-19T14:21:43;1.70;;;1.13;;
12840;SDS011;6487;48.626;12.486;2023-09-19T14:24:17;1.67;;;1.10;;
12840;SDS011;6487;48.626;12.486;2023-09-19T14:26:45;1.87;;;1.03;;
12840;SDS011;6487;48.626;12.486;2023-09-19T14:29:14;3.10;;;1.27;;
12840;SDS011;6487;48.626;12.486;2023-09-19T14:31:42;1.40;;;1.30;;
12840;SDS011;6487;48.626;12.486;2023-09-19T14:34:11;2.40;;;1.23;;
12840;SDS011;6487;48.626;12.486;2023-09-19T14:36:41;3.73;;;1.10;;
12840;SDS011;6487;48.626;12.486;2023-09-19T14:39:09;1.43;;;1.00;;
12840;SDS011;6487;48.626;12.486;2023-09-19T14:41:42;2.30;;;1.00;;
12840;SDS011;6487;48.626;12.486;2023-09-19T14:44:10;3.13;;;1.30;;
12840;SDS011;6487;48.626;12.486;2023-09-19T14:46:39;1.30;;;1.10;;
12840;SDS011;6487;48.626;12.486;2023-09-19T14:49:07;1.80;;;1.03;;
12840;SDS011;6487;48.626;12.486;2023-09-19T14:51:39;1.33;;;1.00;;
12840;SDS011;6487;48.626;12.486;2023-09-19T14:54:08;1.50;;;1.00;;
12840;SDS011;6487;48.626;12.486;2023-09-19T14:56:36;1.10;;;1.00;;
12840;SDS011;6487;48.626;12.486;2023-09-19T14:59:07;1.83;;;1.20;;
12840;SDS011;6487;48.626;12.486;2023-09-19T15:01:37;1.40;;;1.10;;
12840;SDS011;6487;48.626;12.486;2023-09-19T15:04:06;1.17;;;1.00;;
12840;SDS011;6487;48.626;12.486;2023-09-19T15:06:35;1.30;;;1.17;;
12840;SDS011;6487;48.626;12.486;2023-09-19T15:09:03;1.83;;;1.10;;
12840;SDS011;6487;48.626;12.486;2023-09-19T15:11:32;2.33;;;0.97;;
12840;SDS011;6487;48.626;12.486;2023-09-19T15:14:01;3.90;;;1.07;;
12840;SDS011;6487;48.626;12.486;2023-09-19T15:16:31;1.33;;;1.17;;
12840;SDS011;6487;48.626;12.486;2023-09-19T15:19:00;1.17;;;1.07;;
12840;SDS011;6487;48.626;12.486;2023-09-19T15:21:28;1.73;;;1.20;;
12840;SDS011;6487;48.626;12.486;2023-09-19T15:23:57;4.60;;;1.07;;
12840;SDS011;6487;48.626;12.486;2023-09-19T15:26:25;1.30;;;0.87;;
12840;SDS011;6487;48.626;12.486;2023-09-19T15:28:54;3.50;;;1.13;;